sensor_id;sensor_type;location;lat;lon;timestamp;temperature;humidity
15983;DHT22;14442;50.196;8.096;2022-10-26T00:00:41;20.30;64.30
15983;DHT22;14442;50.196;8.096;2022-10-26T00:03:08;20.40;64.50
15983;DHT22;14442;50.196;8.096;2022-10-26T00:05:36;20.40;64.50
15983;DHT22;14442;50.196;8.096;2022-10-26T00:08:04;20.40;64.50
15983;DHT22;14442;50.196;8.096;2022-10-26T00:10:33;20.40;64.50
15983;DHT22;14442;50.196;8.096;2022-10-26T00:12:59;20.40;64.50
15983;DHT22;14442;50.196;8.096;2022-10-26T00:15:26;20.50;64.60
15983;DHT22;14442;50.196;8.096;2022-10-26T00:17:53;20.40;64.50
15983;DHT22;14442;50.196;8.096;2022-10-26T00:20:20;20.40;64.50
15983;DHT22;14442;50.196;8.096;2022-10-26T00:22:48;20.40;64.50
15983;DHT22;14442;50.196;8.096;2022-10-26T00:25:15;20.30;64.40
15983;DHT22;14442;50.196;8.096;2022-10-26T00:27:41;20.30;64.40
15983;DHT22;14442;50.196;8.096;2022-10-26T00:30:08;20.30;64.40
15983;DHT22;14442;50.196;8.096;2022-10-26T00:32:35;20.30;64.40
15983;DHT22;14442;50.196;8.096;2022-10-26T00:35:02;20.30;64.40
15983;DHT22;14442;50.196;8.096;2022-10-26T00:37:29;20.30;64.40
15983;DHT22;14442;50.196;8.096;2022-10-26T00:39:57;20.30;64.40
15983;DHT22;14442;50.196;8.096;2022-10-26T00:42:23;20.30;64.40
15983;DHT22;14442;50.196;8.096;2022-10-26T00:47:44;20.30;64.40
15983;DHT22;14442;50.196;8.096;2022-10-26T00:50:14;20.30;64.30
15983;DHT22;14442;50.196;8.096;2022-10-26T00:52:43;20.30;64.30
15983;DHT22;14442;50.196;8.096;2022-10-26T00:55:11;20.30;64.40
15983;DHT22;14442;50.196;8.096;2022-10-26T00:57:38;20.30;64.30
15983;DHT22;14442;50.196;8.096;2022-10-26T01:00:07;20.30;64.30
15983;DHT22;14442;50.196;8.096;2022-10-26T01:02:34;20.30;64.30
15983;DHT22;14442;50.196;8.096;2022-10-26T01:05:02;20.30;64.30
15983;DHT22;14442;50.196;8.096;2022-10-26T01:07:30;20.30;64.30
15983;DHT22;14442;50.196;8.096;2022-10-26T01:09:57;20.30;64.30
15983;DHT22;14442;50.196;8.096;2022-10-26T01:12:26;20.30;64.30
15983;DHT22;14442;50.196;8.096;2022-10-26T01:14:52;20.30;64.30
15983;DHT22;14442;50.196;8.096;2022-10-26T01:17:34;20.30;64.30
15983;DHT22;14442;50.196;8.096;2022-10-26T01:20:25;20.30;64.30
15983;DHT22;14442;50.196;8.096;2022-10-26T01:23:02;20.20;64.30
15983;DHT22;14442;50.196;8.096;2022-10-26T01:25:44;20.20;64.30
15983;DHT22;14442;50.196;8.096;2022-10-26T01:28:30;20.20;64.30
15983;DHT22;14442;50.196;8.096;2022-10-26T01:31:05;20.20;64.30
15983;DHT22;14442;50.196;8.096;2022-10-26T01:33:39;20.30;64.50
15983;DHT22;14442;50.196;8.096;2022-10-26T01:36:10;20.30;64.50
15983;DHT22;14442;50.196;8.096;2022-10-26T01:38:51;20.30;64.50
15983;DHT22;14442;50.196;8.096;2022-10-26T01:41:24;20.20;64.40
15983;DHT22;14442;50.196;8.096;2022-10-26T01:43:54;20.20;64.40
15983;DHT22;14442;50.196;8.096;2022-10-26T01:46:25;20.30;64.50
15983;DHT22;14442;50.196;8.096;2022-10-26T01:48:54;20.30;64.50
15983;DHT22;14442;50.196;8.096;2022-10-26T01:51:24;20.20;64.40
15983;DHT22;14442;50.196;8.096;2022-10-26T01:53:51;20.20;64.40
15983;DHT22;14442;50.196;8.096;2022-10-26T01:56:20;20.20;64.40
15983;DHT22;14442;50.196;8.096;2022-10-26T01:59:12;20.20;64.40
15983;DHT22;14442;50.196;8.096;2022-10-26T02:02:14;20.20;64.40
15983;DHT22;14442;50.196;8.096;2022-10-26T02:04:51;20.20;64.40
15983;DHT22;14442;50.196;8.096;2022-10-26T02:07:28;20.20;64.50
15983;DHT22;14442;50.196;8.096;2022-10-26T02:10:00;20.20;64.50
15983;DHT22;14442;50.196;8.096;2022-10-26T02:12:37;20.20;64.50
15983;DHT22;14442;50.196;8.096;2022-10-26T02:15:13;20.20;64.50
15983;DHT22;14442;50.196;8.096;2022-10-26T02:17:48;20.20;64.50
15983;DHT22;14442;50.196;8.096;2022-10-26T02:20:21;20.20;64.50
15983;DHT22;14442;50.196;8.096;2022-10-26T02:22:50;20.20;64.40
15983;DHT22;14442;50.196;8.096;2022-10-26T02:25:21;20.20;64.40
15983;DHT22;14442;50.196;8.096;2022-10-26T02:27:52;20.20;64.50
15983;DHT22;14442;50.196;8.096;2022-10-26T02:30:20;20.20;64.50
15983;DHT22;14442;50.196;8.096;2022-10-26T02:32:51;20.20;64.40
15983;DHT22;14442;50.196;8.096;2022-10-26T02:35:21;20.20;64.40
15983;DHT22;14442;50.196;8.096;2022-10-26T02:37:50;20.20;64.40
15983;DHT22;14442;50.196;8.096;2022-10-26T02:40:22;20.20;64.50
15983;DHT22;14442;50.196;8.096;2022-10-26T02:42:51;20.20;64.50
15983;DHT22;14442;50.196;8.096;2022-10-26T02:45:21;20.20;65.10
15983;DHT22;14442;50.196;8.096;2022-10-26T02:47:51;20.20;64.40
15983;DHT22;14442;50.196;8.096;2022-10-26T02:50:21;20.20;64.40
15983;DHT22;14442;50.196;8.096;2022-10-26T02:52:56;20.20;64.40
15983;DHT22;14442;50.196;8.096;2022-10-26T02:55:29;20.20;64.40
15983;DHT22;14442;50.196;8.096;2022-10-26T02:58:00;20.20;64.40
15983;DHT22;14442;50.196;8.096;2022-10-26T03:00:28;20.20;64.40
15983;DHT22;14442;50.196;8.096;2022-10-26T03:02:58;20.20;64.50
15983;DHT22;14442;50.196;8.096;2022-10-26T03:05:28;20.20;64.40
15983;DHT22;14442;50.196;8.096;2022-10-26T03:07:57;20.10;64.30
15983;DHT22;14442;50.196;8.096;2022-10-26T03:10:24;20.20;64.40
15983;DHT22;14442;50.196;8.096;2022-10-26T03:12:51;20.20;64.40
15983;DHT22;14442;50.196;8.096;2022-10-26T03:15:18;20.10;64.30
15983;DHT22;14442;50.196;8.096;2022-10-26T03:17:45;20.10;64.30
15983;DHT22;14442;50.196;8.096;2022-10-26T03:20:13;20.10;64.30
15983;DHT22;14442;50.196;8.096;2022-10-26T03:22:40;20.20;64.40
15983;DHT22;14442;50.196;8.096;2022-10-26T03:25:07;20.10;64.30
15983;DHT22;14442;50.196;8.096;2022-10-26T03:27:34;20.10;64.30
15983;DHT22;14442;50.196;8.096;2022-10-26T03:30:00;20.20;64.40
15983;DHT22;14442;50.196;8.096;2022-10-26T03:32:27;20.10;64.30
15983;DHT22;14442;50.196;8.096;2022-10-26T03:34:54;20.10;64.30
15983;DHT22;14442;50.196;8.096;2022-10-26T03:37:22;20.10;64.30
15983;DHT22;14442;50.196;8.096;2022-10-26T03:39:48;20.10;64.30
15983;DHT22;14442;50.196;8.096;2022-10-26T03:42:15;20.10;64.30
15983;DHT22;14442;50.196;8.096;2022-10-26T03:44:42;20.10;64.30
15983;DHT22;14442;50.196;8.096;2022-10-26T03:47:08;20.10;64.30
15983;DHT22;14442;50.196;8.096;2022-10-26T03:49:35;20.10;64.30
15983;DHT22;14442;50.196;8.096;2022-10-26T03:52:02;20.10;64.30
15983;DHT22;14442;50.196;8.096;2022-10-26T03:54:30;20.10;64.30
15983;DHT22;14442;50.196;8.096;2022-10-26T03:56:56;20.10;64.30
15983;DHT22;14442;50.196;8.096;2022-10-26T03:59:23;20.10;64.30
15983;DHT22;14442;50.196;8.096;2022-10-26T04:01:50;20.10;64.30
15983;DHT22;14442;50.196;8.096;2022-10-26T04:04:16;20.00;64.30
15983;DHT22;14442;50.196;8.096;2022-10-26T04:06:43;20.10;64.30
15983;DHT22;14442;50.196;8.096;2022-10-26T04:09:10;20.10;64.40
15983;DHT22;14442;50.196;8.096;2022-10-26T04:11:38;20.10;64.40
15983;DHT22;14442;50.196;8.096;2022-10-26T04:14:04;20.10;64.30
15983;DHT22;14442;50.196;8.096;2022-10-26T04:16:31;20.10;64.30
15983;DHT22;14442;50.196;8.096;2022-10-26T04:18:57;20.10;64.30
15983;DHT22;14442;50.196;8.096;2022-10-26T04:21:24;20.10;64.40
15983;DHT22;14442;50.196;8.096;2022-10-26T04:23:51;20.10;64.40
15983;DHT22;14442;50.196;8.096;2022-10-26T04:26:17;20.10;64.40
15983;DHT22;14442;50.196;8.096;2022-10-26T04:28:45;20.10;64.30
15983;DHT22;14442;50.196;8.096;2022-10-26T04:31:12;20.10;64.30
15983;DHT22;14442;50.196;8.096;2022-10-26T04:33:39;20.00;64.30
15983;DHT22;14442;50.196;8.096;2022-10-26T04:36:06;20.10;64.40
15983;DHT22;14442;50.196;8.096;2022-10-26T04:38:33;20.00;64.20
15983;DHT22;14442;50.196;8.096;2022-10-26T04:41:00;20.00;64.30
15983;DHT22;14442;50.196;8.096;2022-10-26T04:43:26;20.10;64.40
15983;DHT22;14442;50.196;8.096;2022-10-26T04:45:55;20.00;64.30
15983;DHT22;14442;50.196;8.096;2022-10-26T04:48:23;20.00;64.30
15983;DHT22;14442;50.196;8.096;2022-10-26T04:50:49;20.00;64.30
15983;DHT22;14442;50.196;8.096;2022-10-26T04:53:16;20.00;64.30
15983;DHT22;14442;50.196;8.096;2022-10-26T04:55:43;20.00;64.20
15983;DHT22;14442;50.196;8.096;2022-10-26T04:58:09;20.00;64.20
15983;DHT22;14442;50.196;8.096;2022-10-26T05:00:36;20.00;64.30
15983;DHT22;14442;50.196;8.096;2022-10-26T05:03:06;20.00;64.30
15983;DHT22;14442;50.196;8.096;2022-10-26T05:05:34;20.00;64.20
15983;DHT22;14442;50.196;8.096;2022-10-26T05:08:01;20.00;64.30
15983;DHT22;14442;50.196;8.096;2022-10-26T05:10:27;20.00;64.20
15983;DHT22;14442;50.196;8.096;2022-10-26T05:12:55;19.90;64.20
15983;DHT22;14442;50.196;8.096;2022-10-26T05:15:22;20.00;64.30
15983;DHT22;14442;50.196;8.096;2022-10-26T05:17:53;20.00;64.30
15983;DHT22;14442;50.196;8.096;2022-10-26T05:20:22;20.00;64.30
15983;DHT22;14442;50.196;8.096;2022-10-26T05:22:53;20.00;64.30
15983;DHT22;14442;50.196;8.096;2022-10-26T05:25:20;20.00;64.30
15983;DHT22;14442;50.196;8.096;2022-10-26T05:27:47;20.00;64.30
15983;DHT22;14442;50.196;8.096;2022-10-26T05:30:13;19.90;64.90
15983;DHT22;14442;50.196;8.096;2022-10-26T05:32:40;20.00;64.30
15983;DHT22;14442;50.196;8.096;2022-10-26T05:35:07;20.00;64.30
15983;DHT22;14442;50.196;8.096;2022-10-26T05:37:35;20.00;64.30
15983;DHT22;14442;50.196;8.096;2022-10-26T05:40:02;19.90;64.20
15983;DHT22;14442;50.196;8.096;2022-10-26T05:42:28;20.00;64.30
15983;DHT22;14442;50.196;8.096;2022-10-26T05:44:55;20.00;64.30
15983;DHT22;14442;50.196;8.096;2022-10-26T05:47:22;19.90;64.20
15983;DHT22;14442;50.196;8.096;2022-10-26T05:49:48;20.00;64.30
15983;DHT22;14442;50.196;8.096;2022-10-26T05:52:15;19.90;64.20
15983;DHT22;14442;50.196;8.096;2022-10-26T05:54:43;19.90;64.10
15983;DHT22;14442;50.196;8.096;2022-10-26T05:57:11;20.00;64.40
15983;DHT22;14442;50.196;8.096;2022-10-26T05:59:38;20.00;64.30
15983;DHT22;14442;50.196;8.096;2022-10-26T06:02:11;20.00;64.30
15983;DHT22;14442;50.196;8.096;2022-10-26T06:04:43;19.90;64.20
15983;DHT22;14442;50.196;8.096;2022-10-26T06:07:14;19.90;64.30
15983;DHT22;14442;50.196;8.096;2022-10-26T06:09:44;19.90;64.50
15983;DHT22;14442;50.196;8.096;2022-10-26T06:12:12;20.00;64.30
15983;DHT22;14442;50.196;8.096;2022-10-26T06:14:40;19.90;64.30
15983;DHT22;14442;50.196;8.096;2022-10-26T06:17:18;19.90;64.20
15983;DHT22;14442;50.196;8.096;2022-10-26T06:20:01;20.00;64.40
15983;DHT22;14442;50.196;8.096;2022-10-26T06:22:42;19.90;64.20
15983;DHT22;14442;50.196;8.096;2022-10-26T06:25:21;20.00;64.40
15983;DHT22;14442;50.196;8.096;2022-10-26T06:27:55;19.90;64.20
15983;DHT22;14442;50.196;8.096;2022-10-26T06:30:23;20.00;64.40
15983;DHT22;14442;50.196;8.096;2022-10-26T06:32:50;19.90;64.30
15983;DHT22;14442;50.196;8.096;2022-10-26T06:35:25;19.90;64.20
15983;DHT22;14442;50.196;8.096;2022-10-26T06:37:54;19.90;64.20
15983;DHT22;14442;50.196;8.096;2022-10-26T06:40:23;19.90;64.30
15983;DHT22;14442;50.196;8.096;2022-10-26T06:42:51;19.90;64.20
15983;DHT22;14442;50.196;8.096;2022-10-26T06:45:18;19.90;64.20
15983;DHT22;14442;50.196;8.096;2022-10-26T06:47:51;19.90;64.20
15983;DHT22;14442;50.196;8.096;2022-10-26T06:50:29;19.90;64.70
15983;DHT22;14442;50.196;8.096;2022-10-26T06:53:07;19.90;64.20
15983;DHT22;14442;50.196;8.096;2022-10-26T06:55:41;19.90;64.20
15983;DHT22;14442;50.196;8.096;2022-10-26T06:58:10;19.90;64.20
15983;DHT22;14442;50.196;8.096;2022-10-26T07:00:39;19.90;64.20
15983;DHT22;14442;50.196;8.096;2022-10-26T07:03:06;19.90;64.20
15983;DHT22;14442;50.196;8.096;2022-10-26T07:05:33;19.90;64.20
15983;DHT22;14442;50.196;8.096;2022-10-26T07:07:59;20.00;64.90
15983;DHT22;14442;50.196;8.096;2022-10-26T07:10:26;19.80;64.10
15983;DHT22;14442;50.196;8.096;2022-10-26T07:12:54;20.00;64.30
15983;DHT22;14442;50.196;8.096;2022-10-26T07:15:21;19.90;64.20
15983;DHT22;14442;50.196;8.096;2022-10-26T07:17:48;19.90;64.20
15983;DHT22;14442;50.196;8.096;2022-10-26T07:20:17;19.90;64.20
15983;DHT22;14442;50.196;8.096;2022-10-26T07:22:43;19.90;64.20
15983;DHT22;14442;50.196;8.096;2022-10-26T07:25:11;19.90;64.20
15983;DHT22;14442;50.196;8.096;2022-10-26T07:27:37;19.90;64.10
15983;DHT22;14442;50.196;8.096;2022-10-26T07:30:06;19.90;64.10
15983;DHT22;14442;50.196;8.096;2022-10-26T07:32:33;19.90;64.20
15983;DHT22;14442;50.196;8.096;2022-10-26T07:35:00;19.90;64.10
15983;DHT22;14442;50.196;8.096;2022-10-26T07:37:27;19.90;64.10
15983;DHT22;14442;50.196;8.096;2022-10-26T07:39:53;19.90;64.10
15983;DHT22;14442;50.196;8.096;2022-10-26T07:42:20;20.00;64.20
15983;DHT22;14442;50.196;8.096;2022-10-26T07:44:47;20.00;64.10
15983;DHT22;14442;50.196;8.096;2022-10-26T07:47:15;20.00;64.10
15983;DHT22;14442;50.196;8.096;2022-10-26T07:49:42;20.00;64.00
15983;DHT22;14442;50.196;8.096;2022-10-26T07:52:09;20.00;64.10
15983;DHT22;14442;50.196;8.096;2022-10-26T07:54:36;19.90;64.10
15983;DHT22;14442;50.196;8.096;2022-10-26T07:57:02;20.00;64.30
15983;DHT22;14442;50.196;8.096;2022-10-26T07:59:29;19.90;64.40
15983;DHT22;14442;50.196;8.096;2022-10-26T08:01:56;19.90;64.50
15983;DHT22;14442;50.196;8.096;2022-10-26T08:04:24;19.90;64.50
15983;DHT22;14442;50.196;8.096;2022-10-26T08:06:51;19.90;65.10
15983;DHT22;14442;50.196;8.096;2022-10-26T08:09:17;19.90;64.30
15983;DHT22;14442;50.196;8.096;2022-10-26T08:11:45;19.90;64.30
15983;DHT22;14442;50.196;8.096;2022-10-26T08:14:12;19.90;64.30
15983;DHT22;14442;50.196;8.096;2022-10-26T08:16:38;19.90;64.30
15983;DHT22;14442;50.196;8.096;2022-10-26T08:19:06;19.90;64.40
15983;DHT22;14442;50.196;8.096;2022-10-26T08:21:34;19.90;64.40
15983;DHT22;14442;50.196;8.096;2022-10-26T08:24:00;19.90;64.40
15983;DHT22;14442;50.196;8.096;2022-10-26T08:26:27;19.90;64.40
15983;DHT22;14442;50.196;8.096;2022-10-26T08:28:55;19.90;64.40
15983;DHT22;14442;50.196;8.096;2022-10-26T08:31:21;19.90;64.40
15983;DHT22;14442;50.196;8.096;2022-10-26T08:33:48;19.90;64.40
15983;DHT22;14442;50.196;8.096;2022-10-26T08:36:16;19.90;64.30
15983;DHT22;14442;50.196;8.096;2022-10-26T08:38:47;19.90;64.30
15983;DHT22;14442;50.196;8.096;2022-10-26T08:41:14;20.00;64.40
15983;DHT22;14442;50.196;8.096;2022-10-26T08:43:44;19.90;64.20
15983;DHT22;14442;50.196;8.096;2022-10-26T08:46:16;19.90;64.20
15983;DHT22;14442;50.196;8.096;2022-10-26T08:48:48;19.90;64.20
15983;DHT22;14442;50.196;8.096;2022-10-26T08:51:18;19.90;64.20
15983;DHT22;14442;50.196;8.096;2022-10-26T08:53:53;19.90;64.20
15983;DHT22;14442;50.196;8.096;2022-10-26T08:56:23;19.90;64.20
15983;DHT22;14442;50.196;8.096;2022-10-26T08:58:54;19.90;64.20
15983;DHT22;14442;50.196;8.096;2022-10-26T09:01:22;19.90;64.20
15983;DHT22;14442;50.196;8.096;2022-10-26T09:03:49;19.90;64.20
15983;DHT22;14442;50.196;8.096;2022-10-26T09:06:22;20.00;64.20
15983;DHT22;14442;50.196;8.096;2022-10-26T09:09:01;20.00;64.20
15983;DHT22;14442;50.196;8.096;2022-10-26T09:11:40;20.00;64.20
15983;DHT22;14442;50.196;8.096;2022-10-26T09:14:18;20.00;64.20
15983;DHT22;14442;50.196;8.096;2022-10-26T09:16:56;20.00;64.10
15983;DHT22;14442;50.196;8.096;2022-10-26T09:19:38;20.00;64.10
15983;DHT22;14442;50.196;8.096;2022-10-26T09:22:16;20.00;64.00
15983;DHT22;14442;50.196;8.096;2022-10-26T09:24:51;20.00;64.00
15983;DHT22;14442;50.196;8.096;2022-10-26T09:27:23;20.00;63.90
15983;DHT22;14442;50.196;8.096;2022-10-26T09:29:50;20.10;64.10
15983;DHT22;14442;50.196;8.096;2022-10-26T09:32:19;20.10;64.10
15983;DHT22;14442;50.196;8.096;2022-10-26T09:34:48;20.10;64.00
15983;DHT22;14442;50.196;8.096;2022-10-26T09:37:18;20.10;64.00
15983;DHT22;14442;50.196;8.096;2022-10-26T09:39:54;20.10;64.00
15983;DHT22;14442;50.196;8.096;2022-10-26T09:42:27;20.10;63.90
15983;DHT22;14442;50.196;8.096;2022-10-26T09:44:57;20.10;63.90
15983;DHT22;14442;50.196;8.096;2022-10-26T09:47:32;20.10;63.80
15983;DHT22;14442;50.196;8.096;2022-10-26T09:50:13;20.10;63.90
15983;DHT22;14442;50.196;8.096;2022-10-26T09:52:42;20.10;63.90
15983;DHT22;14442;50.196;8.096;2022-10-26T09:55:11;20.10;63.80
15983;DHT22;14442;50.196;8.096;2022-10-26T09:57:39;20.10;63.80
15983;DHT22;14442;50.196;8.096;2022-10-26T10:00:12;20.10;63.80
15983;DHT22;14442;50.196;8.096;2022-10-26T10:02:40;20.10;63.80
15983;DHT22;14442;50.196;8.096;2022-10-26T10:05:24;20.10;63.80
15983;DHT22;14442;50.196;8.096;2022-10-26T10:07:51;20.10;63.90
15983;DHT22;14442;50.196;8.096;2022-10-26T10:10:21;20.20;64.10
15983;DHT22;14442;50.196;8.096;2022-10-26T10:12:49;20.20;64.30
15983;DHT22;14442;50.196;8.096;2022-10-26T10:15:18;20.20;64.30
15983;DHT22;14442;50.196;8.096;2022-10-26T10:17:47;20.20;64.00
15983;DHT22;14442;50.196;8.096;2022-10-26T10:20:18;20.20;64.10
15983;DHT22;14442;50.196;8.096;2022-10-26T10:22:55;20.20;64.10
15983;DHT22;14442;50.196;8.096;2022-10-26T10:25:36;20.20;64.20
15983;DHT22;14442;50.196;8.096;2022-10-26T10:28:19;20.20;64.10
15983;DHT22;14442;50.196;8.096;2022-10-26T10:30:52;20.20;64.30
15983;DHT22;14442;50.196;8.096;2022-10-26T10:33:19;20.20;64.20
15983;DHT22;14442;50.196;8.096;2022-10-26T10:35:48;20.20;64.20
15983;DHT22;14442;50.196;8.096;2022-10-26T10:38:17;20.20;64.40
15983;DHT22;14442;50.196;8.096;2022-10-26T10:40:52;20.20;65.00
15983;DHT22;14442;50.196;8.096;2022-10-26T10:43:19;20.30;66.30
15983;DHT22;14442;50.196;8.096;2022-10-26T10:45:47;20.30;67.00
15983;DHT22;14442;50.196;8.096;2022-10-26T10:48:16;20.30;67.20
15983;DHT22;14442;50.196;8.096;2022-10-26T10:50:51;20.30;67.10
15983;DHT22;14442;50.196;8.096;2022-10-26T10:53:21;20.30;66.80
15983;DHT22;14442;50.196;8.096;2022-10-26T10:56:10;20.40;66.80
15983;DHT22;14442;50.196;8.096;2022-10-26T10:58:47;20.40;66.70
15983;DHT22;14442;50.196;8.096;2022-10-26T11:01:20;20.40;66.60
15983;DHT22;14442;50.196;8.096;2022-10-26T11:04:01;20.40;66.50
15983;DHT22;14442;50.196;8.096;2022-10-26T11:06:30;20.40;66.50
15983;DHT22;14442;50.196;8.096;2022-10-26T11:09:02;20.40;66.50
15983;DHT22;14442;50.196;8.096;2022-10-26T11:11:35;20.40;66.40
15983;DHT22;14442;50.196;8.096;2022-10-26T11:14:05;20.40;66.40
15983;DHT22;14442;50.196;8.096;2022-10-26T11:16:36;20.40;66.40
15983;DHT22;14442;50.196;8.096;2022-10-26T11:19:14;20.40;66.30
15983;DHT22;14442;50.196;8.096;2022-10-26T11:21:43;20.40;66.40
15983;DHT22;14442;50.196;8.096;2022-10-26T11:24:15;20.50;66.50
15983;DHT22;14442;50.196;8.096;2022-10-26T11:26:49;20.50;66.50
15983;DHT22;14442;50.196;8.096;2022-10-26T11:29:35;20.50;66.30
15983;DHT22;14442;50.196;8.096;2022-10-26T11:32:09;20.60;66.40
15983;DHT22;14442;50.196;8.096;2022-10-26T11:34:44;20.60;66.10
15983;DHT22;14442;50.196;8.096;2022-10-26T11:37:16;20.60;66.20
15983;DHT22;14442;50.196;8.096;2022-10-26T11:39:46;20.60;66.40
15983;DHT22;14442;50.196;8.096;2022-10-26T11:42:23;20.60;66.60
15983;DHT22;14442;50.196;8.096;2022-10-26T11:44:56;20.60;66.60
15983;DHT22;14442;50.196;8.096;2022-10-26T11:47:29;20.60;66.80
15983;DHT22;14442;50.196;8.096;2022-10-26T11:50:03;20.60;67.00
15983;DHT22;14442;50.196;8.096;2022-10-26T11:52:38;20.70;67.10
15983;DHT22;14442;50.196;8.096;2022-10-26T11:55:10;20.70;67.00
15983;DHT22;14442;50.196;8.096;2022-10-26T11:57:40;20.70;67.10
15983;DHT22;14442;50.196;8.096;2022-10-26T12:00:13;20.70;67.20
15983;DHT22;14442;50.196;8.096;2022-10-26T12:02:41;20.70;67.10
15983;DHT22;14442;50.196;8.096;2022-10-26T12:05:18;20.70;66.90
15983;DHT22;14442;50.196;8.096;2022-10-26T12:07:49;20.80;66.90
15983;DHT22;14442;50.196;8.096;2022-10-26T12:10:26;20.90;67.10
15983;DHT22;14442;50.196;8.096;2022-10-26T12:13:00;20.90;67.00
15983;DHT22;14442;50.196;8.096;2022-10-26T12:15:33;20.90;67.00
15983;DHT22;14442;50.196;8.096;2022-10-26T12:18:09;20.90;67.00
15983;DHT22;14442;50.196;8.096;2022-10-26T12:21:05;20.90;66.90
15983;DHT22;14442;50.196;8.096;2022-10-26T12:23:34;20.90;66.80
15983;DHT22;14442;50.196;8.096;2022-10-26T12:32:47;20.90;67.10
15983;DHT22;14442;50.196;8.096;2022-10-26T12:35:41;20.90;67.10
15983;DHT22;14442;50.196;8.096;2022-10-26T12:41:18;20.90;67.10
15983;DHT22;14442;50.196;8.096;2022-10-26T12:43:46;20.90;67.00
15983;DHT22;14442;50.196;8.096;2022-10-26T12:46:41;20.80;66.90
15983;DHT22;14442;50.196;8.096;2022-10-26T12:52:39;20.90;66.80
15983;DHT22;14442;50.196;8.096;2022-10-26T12:58:45;20.90;66.80
15983;DHT22;14442;50.196;8.096;2022-10-26T13:01:45;20.90;66.80
15983;DHT22;14442;50.196;8.096;2022-10-26T13:04:47;20.90;66.90
15983;DHT22;14442;50.196;8.096;2022-10-26T13:07:21;20.90;66.80
15983;DHT22;14442;50.196;8.096;2022-10-26T13:09:58;20.90;66.70
15983;DHT22;14442;50.196;8.096;2022-10-26T13:12:34;20.90;66.80
15983;DHT22;14442;50.196;8.096;2022-10-26T13:15:04;20.90;66.80
15983;DHT22;14442;50.196;8.096;2022-10-26T13:17:33;21.00;66.80
15983;DHT22;14442;50.196;8.096;2022-10-26T13:20:02;21.00;66.60
15983;DHT22;14442;50.196;8.096;2022-10-26T13:22:30;21.00;66.50
15983;DHT22;14442;50.196;8.096;2022-10-26T13:24:58;21.00;66.50
15983;DHT22;14442;50.196;8.096;2022-10-26T13:27:43;21.00;66.40
15983;DHT22;14442;50.196;8.096;2022-10-26T13:30:44;21.00;66.30
15983;DHT22;14442;50.196;8.096;2022-10-26T13:33:30;21.00;66.30
15983;DHT22;14442;50.196;8.096;2022-10-26T13:36:12;21.10;66.30
15983;DHT22;14442;50.196;8.096;2022-10-26T13:38:41;21.10;66.30
15983;DHT22;14442;50.196;8.096;2022-10-26T13:41:18;21.10;66.30
15983;DHT22;14442;50.196;8.096;2022-10-26T13:43:48;21.10;66.40
15983;DHT22;14442;50.196;8.096;2022-10-26T13:46:24;21.10;66.30
15983;DHT22;14442;50.196;8.096;2022-10-26T13:48:57;21.10;66.40
15983;DHT22;14442;50.196;8.096;2022-10-26T13:51:34;21.00;66.40
15983;DHT22;14442;50.196;8.096;2022-10-26T13:54:10;21.10;66.50
15983;DHT22;14442;50.196;8.096;2022-10-26T13:56:42;21.00;66.50
15983;DHT22;14442;50.196;8.096;2022-10-26T13:59:12;21.00;67.30
15983;DHT22;14442;50.196;8.096;2022-10-26T14:01:39;21.00;66.50
15983;DHT22;14442;50.196;8.096;2022-10-26T14:04:15;21.00;66.50
15983;DHT22;14442;50.196;8.096;2022-10-26T14:06:46;21.00;66.50
15983;DHT22;14442;50.196;8.096;2022-10-26T14:09:15;21.00;66.40
15983;DHT22;14442;50.196;8.096;2022-10-26T14:11:45;20.90;66.20
15983;DHT22;14442;50.196;8.096;2022-10-26T14:14:17;20.90;66.30
15983;DHT22;14442;50.196;8.096;2022-10-26T14:16:45;20.90;66.10
15983;DHT22;14442;50.196;8.096;2022-10-26T14:19:20;20.90;66.00
15983;DHT22;14442;50.196;8.096;2022-10-26T14:21:48;20.90;65.90
15983;DHT22;14442;50.196;8.096;2022-10-26T14:24:20;20.90;65.90
15983;DHT22;14442;50.196;8.096;2022-10-26T14:26:47;20.90;65.90
15983;DHT22;14442;50.196;8.096;2022-10-26T14:29:16;20.90;66.10
15983;DHT22;14442;50.196;8.096;2022-10-26T14:31:43;21.00;66.20
15983;DHT22;14442;50.196;8.096;2022-10-26T14:34:11;20.90;66.20
15983;DHT22;14442;50.196;8.096;2022-10-26T14:36:43;21.00;66.30
15983;DHT22;14442;50.196;8.096;2022-10-26T14:39:17;21.00;66.50
15983;DHT22;14442;50.196;8.096;2022-10-26T14:41:46;21.00;66.50
15983;DHT22;14442;50.196;8.096;2022-10-26T14:44:16;21.00;66.40
15983;DHT22;14442;50.196;8.096;2022-10-26T14:46:45;21.00;66.50
15983;DHT22;14442;50.196;8.096;2022-10-26T14:49:16;21.00;66.40
15983;DHT22;14442;50.196;8.096;2022-10-26T14:51:45;21.00;66.50
15983;DHT22;14442;50.196;8.096;2022-10-26T14:54:19;21.00;66.40
15983;DHT22;14442;50.196;8.096;2022-10-26T14:56:47;21.00;66.50
15983;DHT22;14442;50.196;8.096;2022-10-26T14:59:21;21.00;66.50
15983;DHT22;14442;50.196;8.096;2022-10-26T15:01:50;21.00;66.50
15983;DHT22;14442;50.196;8.096;2022-10-26T15:04:32;21.00;66.60
15983;DHT22;14442;50.196;8.096;2022-10-26T15:07:15;21.00;66.60
15983;DHT22;14442;50.196;8.096;2022-10-26T15:09:43;21.00;66.50
15983;DHT22;14442;50.196;8.096;2022-10-26T15:12:24;21.00;66.40
15983;DHT22;14442;50.196;8.096;2022-10-26T15:14:53;21.00;66.40
15983;DHT22;14442;50.196;8.096;2022-10-26T15:17:22;21.00;66.30
15983;DHT22;14442;50.196;8.096;2022-10-26T15:19:52;21.00;66.30
15983;DHT22;14442;50.196;8.096;2022-10-26T15:22:24;21.00;66.30
15983;DHT22;14442;50.196;8.096;2022-10-26T15:24:53;21.00;66.50
15983;DHT22;14442;50.196;8.096;2022-10-26T15:27:21;21.00;66.50
15983;DHT22;14442;50.196;8.096;2022-10-26T15:29:50;20.90;66.50
15983;DHT22;14442;50.196;8.096;2022-10-26T15:32:26;21.00;66.50
15983;DHT22;14442;50.196;8.096;2022-10-26T15:35:25;21.00;66.60
15983;DHT22;14442;50.196;8.096;2022-10-26T15:37:54;21.00;66.50
15983;DHT22;14442;50.196;8.096;2022-10-26T15:40:21;21.00;66.50
15983;DHT22;14442;50.196;8.096;2022-10-26T15:42:50;21.00;67.20
15983;DHT22;14442;50.196;8.096;2022-10-26T15:45:19;21.00;66.60
15983;DHT22;14442;50.196;8.096;2022-10-26T15:47:47;21.00;66.50
15983;DHT22;14442;50.196;8.096;2022-10-26T15:50:16;21.00;66.60
15983;DHT22;14442;50.196;8.096;2022-10-26T15:52:43;21.00;66.60
15983;DHT22;14442;50.196;8.096;2022-10-26T15:55:11;21.00;66.60
15983;DHT22;14442;50.196;8.096;2022-10-26T15:57:38;21.00;66.70
15983;DHT22;14442;50.196;8.096;2022-10-26T16:00:06;21.00;66.70
15983;DHT22;14442;50.196;8.096;2022-10-26T16:02:34;21.00;66.60
15983;DHT22;14442;50.196;8.096;2022-10-26T16:05:01;21.00;66.60
15983;DHT22;14442;50.196;8.096;2022-10-26T16:07:28;21.00;66.40
15983;DHT22;14442;50.196;8.096;2022-10-26T16:09:54;21.00;66.50
15983;DHT22;14442;50.196;8.096;2022-10-26T16:12:22;20.90;66.50